Time;durP1;ratioP1;P1;durP2;ratioP2;P2;SDS_P1;SDS_P2;PMS_P1;PMS_P2;Temp;Humidity;BMP_temperature;BMP_pressure;BME280_temperature;BME280_humidity;BME280_pressure;Samples;Min_cycle;Max_cycle;Signal;HPM_P1;HPM_P2
2023/01/07 00:01:27;;;;;;;7.05;6.35;;;;;;;9.54;100.00;101541.19;5183421;28;20428;-73
2023/01/07 00:04:00;;;;;;;9.03;6.73;;;;;;;9.54;100.00;101546.41;5182778;28;20022;-73
2023/01/07 00:06:34;;;;;;;8.87;6.50;;;;;;;9.52;100.00;101540.41;5182678;28;20033;-72
2023/01/07 00:09:07;;;;;;;13.25;6.65;;;;;;;9.50;100.00;101532.63;5187720;28;20050;-75
2023/01/07 00:11:40;;;;;;;9.43;6.80;;;;;;;9.44;100.00;101533.75;5183518;28;20054;-71
2023/01/07 00:14:12;;;;;;;12.50;8.00;;;;;;;9.41;100.00;101536.50;5178553;28;20410;-80
2023/01/07 00:16:43;;;;;;;10.90;7.20;;;;;;;9.46;100.00;101535.47;5171786;28;20030;-80
2023/01/07 00:19:15;;;;;;;12.50;7.77;;;;;;;9.47;100.00;101529.31;5171366;28;20612;-78
2023/01/07 00:21:47;;;;;;;9.47;7.67;;;;;;;9.44;100.00;101520.66;5173587;28;20434;-74
2023/01/07 00:24:18;;;;;;;9.37;7.40;;;;;;;9.42;100.00;101519.91;5179200;28;20028;-75
2023/01/07 00:26:49;;;;;;;9.57;7.60;;;;;;;9.44;100.00;101525.91;5214660;28;20590;-74
2023/01/07 00:29:20;;;;;;;9.73;8.17;;;;;;;9.42;100.00;101521.66;5197226;28;20473;-75
2023/01/07 00:31:52;;;;;;;15.13;8.23;;;;;;;9.44;100.00;101518.06;5180852;28;20088;-77
2023/01/07 00:34:24;;;;;;;10.10;8.17;;;;;;;9.46;100.00;101514.53;5193309;28;20580;-75
2023/01/07 00:37:48;;;;;;;9.33;7.73;;;;;;;9.43;100.00;101511.13;5192104;28;20030;-75
2023/01/07 00:39:46;;;;;;;12.23;8.13;;;;;;;9.43;100.00;101500.69;5197088;28;20606;-73
2023/01/07 00:43:18;;;;;;;12.93;8.00;;;;;;;9.46;100.00;101506.69;5199515;28;20101;-73
2023/01/07 00:45:18;;;;;;;10.80;7.80;;;;;;;9.42;100.00;101498.13;5186548;28;20038;-71
2023/01/07 00:47:52;;;;;;;10.30;6.97;;;;;;;9.44;100.00;101510.22;5193914;28;20034;-72
2023/01/07 00:50:29;;;;;;;11.38;7.57;;;;;;;9.44;100.00;101499.75;5192782;28;20022;-73
2023/01/07 00:53:01;;;;;;;8.73;6.50;;;;;;;9.36;100.00;101507.09;5194159;28;20101;-75
2023/01/07 00:55:32;;;;;;;10.60;7.13;;;;;;;9.37;100.00;101493.13;5195129;28;20048;-77
2023/01/07 00:58:04;;;;;;;14.70;6.83;;;;;;;9.42;100.00;101498.13;5200603;28;20022;-76
2023/01/07 01:00:35;;;;;;;7.20;5.73;;;;;;;9.43;100.00;101492.84;5193317;28;20022;-73
2023/01/07 01:03:09;;;;;;;9.77;5.33;;;;;;;9.38;100.00;101486.09;5184830;28;20700;-76
2023/01/07 01:05:40;;;;;;;7.75;5.78;;;;;;;9.37;100.00;101482.66;5186975;28;20029;-78
2023/01/07 01:08:12;;;;;;;8.63;5.67;;;;;;;9.35;100.00;101474.03;5197465;28;20025;-80
2023/01/07 01:10:44;;;;;;;7.07;5.57;;;;;;;9.40;100.00;101482.53;5205311;28;20042;-75
2023/01/07 01:13:16;;;;;;;11.30;6.90;;;;;;;9.36;100.00;101467.88;5202608;28;20023;-78
2023/01/07 01:15:48;;;;;;;7.73;5.70;;;;;;;9.37;100.00;101472.22;5185461;28;20694;-73
2023/01/07 01:18:19;;;;;;;6.60;5.27;;;;;;;9.37;100.00;101472.22;5181530;28;20109;-78
2023/01/07 01:20:51;;;;;;;7.70;5.80;;;;;;;9.28;100.00;101462.16;5193369;28;20089;-78
2023/01/07 01:23:22;;;;;;;10.73;6.40;;;;;;;9.27;100.00;101460.44;5183427;28;20119;-76
2023/01/07 01:26:03;;;;;;;9.10;5.73;;;;;;;9.32;100.00;101461.06;5201314;28;20037;-75
2023/01/07 01:28:34;;;;;;;10.30;6.13;;;;;;;9.23;100.00;101445.81;5209653;28;20102;-82
2023/01/07 01:31:07;;;;;;;9.80;5.87;;;;;;;9.23;100.00;101454.53;5190343;28;20101;-82
2023/01/07 01:33:39;;;;;;;8.77;5.70;;;;;;;9.26;100.00;101453.53;5192543;28;20033;-78
2023/01/07 01:36:12;;;;;;;6.80;5.20;;;;;;;9.21;100.00;101451.13;5194016;28;20030;-82
2023/01/07 01:38:43;;;;;;;10.57;5.03;;;;;;;9.15;100.00;101439.16;5212931;28;20065;-79
2023/01/07 01:41:17;;;;;;;9.63;6.23;;;;;;;9.27;100.00;101455.22;5211459;28;20461;-82
2023/01/07 01:43:48;;;;;;;7.80;4.97;;;;;;;9.23;100.00;101445.81;5211829;28;20037;-80
2023/01/07 01:46:33;;;;;;;9.23;5.60;;;;;;;9.27;100.00;101455.22;5210788;28;20384;-82
2023/01/07 01:49:16;;;;;;;9.88;5.88;;;;;;;9.23;100.00;101451.06;5212322;28;20034;-82
2023/01/07 01:51:54;;;;;;;8.93;5.57;;;;;;;9.23;100.00;101443.22;5212956;28;20036;-79
2023/01/07 01:54:26;;;;;;;8.13;5.20;;;;;;;9.18;100.00;101449.47;5194558;28;20070;-82
2023/01/07 01:57:00;;;;;;;9.90;4.83;;;;;;;9.18;100.00;101452.09;5176903;28;20497;-82
2023/01/07 01:59:35;;;;;;;7.40;5.05;;;;;;;9.17;100.00;101445.19;5170915;28;20038;-80
2023/01/07 02:02:07;;;;;;;8.05;5.38;;;;;;;9.17;100.00;101444.31;5190504;28;20026;-72
2023/01/07 02:04:39;;;;;;;10.30;4.93;;;;;;;9.19;100.00;101452.94;5181395;28;20579;-82
2023/01/07 02:07:14;;;;;;;9.37;4.83;;;;;;;9.18;100.00;101446.88;5176619;28;20100;-75
2023/01/07 02:09:57;;;;;;;8.20;5.03;;;;;;;9.20;100.00;101455.50;5186834;28;20037;-75
2023/01/07 02:12:47;;;;;;;10.43;5.53;;;;;;;9.10;100.00;101455.97;5184821;28;20053;-80
2023/01/07 02:15:42;;;;;;;7.70;5.00;;;;;;;9.22;100.00;101455.41;5178645;28;20068;-75
2023/01/07 02:18:29;;;;;;;7.67;5.07;;;;;;;9.14;100.00;101455.78;5189292;28;20038;-78
2023/01/07 02:21:21;;;;;;;8.00;4.83;;;;;;;9.16;100.00;101446.09;5191369;28;20034;-81
2023/01/07 02:24:04;;;;;;;5.37;4.10;;;;;;;9.13;100.00;101437.56;5194603;28;20153;-81
2023/01/07 02:26:56;;;;;;;8.10;5.33;;;;;;;9.07;100.00;101446.50;5199382;28;20188;-81
2023/01/07 02:29:33;;;;;;;9.13;4.53;;;;;;;9.11;100.00;101447.22;5211751;28;20026;-80
2023/01/07 02:32:33;;;;;;;5.73;4.33;;;;;;;9.12;100.00;101441.94;5210878;28;20034;-75
2023/01/07 02:35:34;;;;;;;9.43;4.43;;;;;;;9.15;100.00;101443.53;5199222;28;20040;-77
2023/01/07 02:38:34;;;;;;;8.70;4.40;;;;;;;9.03;100.00;101437.94;5188606;28;20033;-78
2023/01/07 02:41:37;;;;;;;6.63;4.20;;;;;;;9.06;100.00;101436.94;5183565;28;20046;-82
2023/01/07 02:44:27;;;;;;;5.77;3.97;;;;;;;9.13;100.00;101440.16;5183183;28;20058;-81
2023/01/07 02:47:16;;;;;;;7.50;3.90;;;;;;;9.08;100.00;101432.50;5179984;28;20405;-81
2023/01/07 02:49:48;;;;;;;7.80;4.50;;;;;;;9.02;100.00;101419.72;5171117;28;20568;-75
2023/01/07 02:52:23;;;;;;;8.83;4.37;;;;;;;9.06;100.00;101427.34;5186703;28;20035;-78
2023/01/07 02:55:17;;;;;;;5.38;3.42;;;;;;;9.09;100.00;101431.63;5185802;28;20452;-76
2023/01/07 02:58:08;;;;;;;6.13;3.80;;;;;;;9.04;100.00;101410.88;5175893;28;20034;-80
2023/01/07 03:00:58;;;;;;;7.93;3.87;;;;;;;9.15;100.00;101426.09;5172181;28;20049;-81
2023/01/07 03:04:26;;;;;;;5.37;3.87;;;;;;;9.17;100.00;101423.41;5178602;28;20398;-74
2023/01/07 03:07:35;;;;;;;5.77;4.00;;;;;;;9.21;100.00;101425.00;5139624;28;20114;-80
2023/01/07 03:10:20;;;;;;;8.27;4.17;;;;;;;9.19;100.00;101421.59;5141114;28;20043;-75
2023/01/07 03:12:58;;;;;;;;;;;;;;;9.26;100.00;101414.31;5196523;28;20068;-78
2023/01/07 03:15:38;;;;;;;6.40;3.77;;;;;;;9.23;100.00;101407.47;5184209;28;19954;-81
2023/01/07 03:18:16;;;;;;;8.03;3.40;;;;;;;9.24;100.00;101408.31;5183707;28;20061;-79
2023/01/07 03:20:50;;;;;;;6.37;3.63;;;;;;;9.20;100.00;101403.22;5189508;28;20409;-75
2023/01/07 03:23:25;;;;;;;7.53;3.37;;;;;;;9.23;100.00;101401.41;5183397;28;20026;-80
2023/01/07 03:26:01;;;;;;;6.53;3.63;;;;;;;9.24;100.00;101397.84;5177495;28;20088;-70
2023/01/07 03:28:40;;;;;;;4.30;3.00;;;;;;;9.20;100.00;101387.53;5209176;28;20022;-78
2023/01/07 03:31:14;;;;;;;7.33;3.97;;;;;;;9.25;100.00;101383.88;5214524;28;20030;-77
2023/01/07 03:33:53;;;;;;;6.68;3.28;;;;;;;9.20;100.00;101384.06;5205786;28;20077;-81
2023/01/07 03:36:31;;;;;;;6.43;3.90;;;;;;;9.17;100.00;101382.47;5207403;28;20038;-73
2023/01/07 03:39:05;;;;;;;4.93;3.23;;;;;;;9.24;100.00;101382.16;5214338;28;20049;-78
2023/01/07 03:44:27;;;;;;;5.93;3.30;;;;;;;9.25;100.00;101383.88;5210140;28;20038;-81
2023/01/07 03:46:59;;;;;;;3.67;2.97;;;;;;;9.25;100.00;101370.81;5216442;28;20026;-81
2023/01/07 03:49:32;;;;;;;5.23;3.43;;;;;;;9.23;100.00;101368.28;5215963;28;20026;-79
2023/01/07 03:52:03;;;;;;;5.63;2.87;;;;;;;9.23;100.00;101367.41;5210948;28;20653;-71
2023/01/07 03:54:35;;;;;;;6.37;3.40;;;;;;;9.25;100.00;101363.78;5215835;28;20029;-80
2023/01/07 03:57:06;;;;;;;7.50;3.47;;;;;;;9.28;100.00;101370.66;5215285;28;20141;-78
2023/01/07 03:59:37;;;;;;;9.73;3.40;;;;;;;9.24;100.00;101369.97;5212555;28;20038;-81
2023/01/07 04:02:09;;;;;;;6.20;3.57;;;;;;;9.28;100.00;101368.06;5214895;28;20022;-72
2023/01/07 04:04:40;;;;;;;7.37;2.87;;;;;;;9.19;100.00;101359.72;5184276;28;20504;-79
2023/01/07 04:07:12;;;;;;;6.13;2.90;;;;;;;9.22;100.00;101352.63;5175710;28;20040;-72
2023/01/07 04:09:46;;;;;;;6.03;3.30;;;;;;;9.28;100.00;101352.38;5188565;28;20058;-77
2023/01/07 04:12:17;;;;;;;5.90;2.67;;;;;;;9.25;100.00;101340.28;5192975;28;20533;-80
2023/01/07 04:14:49;;;;;;;6.17;3.00;;;;;;;9.29;100.00;101346.22;5176939;28;20037;-81
2023/01/07 04:17:20;;;;;;;5.33;2.50;;;;;;;9.27;100.00;101340.19;5190940;28;20578;-80
2023/01/07 04:19:51;;;;;;;7.23;3.70;;;;;;;9.26;100.00;101347.22;5176316;28;20089;-76
2023/01/07 04:22:23;;;;;;;4.77;2.80;;;;;;;9.14;100.00;101319.88;5191632;28;20557;-77
2023/01/07 04:24:54;;;;;;;6.87;3.00;;;;;;;9.20;100.00;101330.03;5190332;28;20461;-75
2023/01/07 04:27:25;;;;;;;6.00;2.97;;;;;;;9.22;100.00;101327.34;5193695;28;20041;-76
2023/01/07 04:29:57;;;;;;;5.93;2.60;;;;;;;9.25;100.00;101315.94;5180734;28;20058;-82
2023/01/07 04:32:28;;;;;;;6.10;3.10;;;;;;;9.25;100.00;101316.75;5214077;28;20037;-78
2023/01/07 04:34:59;;;;;;;3.97;3.00;;;;;;;9.23;100.00;101316.00;5176174;28;20037;-73
2023/01/07 04:37:30;;;;;;;3.67;2.80;;;;;;;9.22;100.00;101311.69;5190319;28;20600;-81
2023/01/07 04:40:02;;;;;;;5.23;2.63;;;;;;;9.17;100.00;101301.44;5195992;28;20503;-79
2023/01/07 04:42:33;;;;;;;6.27;2.50;;;;;;;9.19;100.00;101312.69;5202201;28;20031;-79
2023/01/07 04:45:05;;;;;;;5.70;3.00;;;;;;;9.08;100.00;101294.03;5210231;28;20037;-77
2023/01/07 04:47:36;;;;;;;6.13;2.70;;;;;;;9.13;100.00;101299.88;5199006;28;20034;-82
2023/01/07 04:50:08;;;;;;;5.20;2.57;;;;;;;9.11;100.00;101296.50;5192999;28;20030;-80
2023/01/07 04:52:39;;;;;;;3.70;2.40;;;;;;;9.09;100.00;101293.13;5194059;28;20030;-78
2023/01/07 04:55:11;;;;;;;4.33;2.53;;;;;;;9.07;100.00;101274.91;5195083;28;20029;-80
2023/01/07 04:57:42;;;;;;;6.17;2.83;;;;;;;9.05;100.00;101273.25;5214221;28;20181;-82
2023/01/07 05:00:14;;;;;;;4.27;2.40;;;;;;;9.10;100.00;101291.34;5189881;28;20026;-81
2023/01/07 05:02:46;;;;;;;4.77;2.00;;;;;;;9.12;100.00;101279.91;5172627;28;20035;-80
2023/01/07 05:05:17;;;;;;;5.50;2.50;;;;;;;9.06;100.00;101277.56;5197381;28;20041;-80
2023/01/07 05:07:48;;;;;;;5.07;2.73;;;;;;;9.07;100.00;101276.66;5187377;28;20041;-77
2023/01/07 05:10:20;;;;;;;5.63;2.40;;;;;;;9.05;100.00;101281.09;5206973;28;20073;-75
2023/01/07 05:12:51;;;;;;;3.63;2.10;;;;;;;9.08;100.00;101280.97;5213045;28;20467;-74
2023/01/07 05:15:22;;;;;;;3.83;2.20;;;;;;;9.10;100.00;101275.66;5208565;28;20097;-76
2023/01/07 05:17:53;;;;;;;5.07;2.40;;;;;;;9.11;100.00;101277.38;5191990;28;20030;-78
2023/01/07 05:20:25;;;;;;;4.07;2.63;;;;;;;9.08;100.00;101267.88;5192336;28;20037;-81
2023/01/07 05:22:56;;;;;;;6.07;2.10;;;;;;;9.03;100.00;101260.28;5186427;28;20039;-80
2023/01/07 05:25:27;;;;;;;5.53;2.60;;;;;;;9.01;100.00;101264.72;5174469;28;20033;-73
2023/01/07 05:27:58;;;;;;;3.97;2.20;;;;;;;8.98;100.00;101261.41;5189723;28;20022;-81
2023/01/07 05:30:30;;;;;;;5.27;2.47;;;;;;;8.95;100.00;101254.56;5192767;28;20454;-81
2023/01/07 05:33:01;;;;;;;3.80;2.00;;;;;;;9.04;100.00;101261.13;5192327;28;20038;-72
2023/01/07 05:35:33;;;;;;;2.97;2.20;;;;;;;8.93;100.00;101246.81;5185277;28;20030;-78
2023/01/07 05:38:05;;;;;;;5.27;2.50;;;;;;;8.91;100.00;101250.41;5199300;28;20022;-81
2023/01/07 05:40:36;;;;;;;4.43;2.40;;;;;;;8.98;100.00;101262.25;5211593;28;20022;-82
2023/01/07 05:43:07;;;;;;;3.73;2.23;;;;;;;8.98;100.00;101262.25;5211556;28;20022;-72
2023/01/07 05:45:39;;;;;;;4.33;2.23;;;;;;;9.01;100.00;101272.56;5211915;28;20022;-81
2023/01/07 05:48:11;;;;;;;3.10;1.80;;;;;;;9.00;100.00;101251.72;5213050;28;20034;-79
2023/01/07 05:50:42;;;;;;;3.53;1.70;;;;;;;9.02;100.00;101250.75;5201713;28;20022;-72
2023/01/07 05:53:14;;;;;;;5.50;2.47;;;;;;;8.99;100.00;101256.09;5197013;28;20026;-78
2023/01/07 05:55:45;;;;;;;4.73;2.40;;;;;;;8.97;100.00;101257.97;5213269;28;20022;-76
2023/01/07 05:58:16;;;;;;;3.40;1.90;;;;;;;9.03;100.00;101255.06;5212724;28;20088;-75
2023/01/07 06:00:47;;;;;;;3.57;2.13;;;;;;;9.02;100.00;101255.13;5211783;28;20018;-78
2023/01/07 06:03:20;;;;;;;3.63;2.40;;;;;;;9.08;100.00;101247.00;5212029;28;20084;-78
2023/01/07 06:05:51;;;;;;;4.23;1.90;;;;;;;9.02;100.00;101248.16;5212831;28;20022;-76
2023/01/07 06:08:22;;;;;;;3.70;1.30;;;;;;;9.11;100.00;101248.63;5190017;28;20081;-77
2023/01/07 06:10:54;;;;;;;3.07;1.87;;;;;;;9.11;100.00;101246.84;5184268;28;20047;-81
2023/01/07 06:13:25;;;;;;;4.23;1.60;;;;;;;9.09;100.00;101233.03;5186332;28;20381;-76
2023/01/07 06:16:00;;;;;;;4.43;2.00;;;;;;;9.06;100.00;101230.53;5176368;28;20164;-81
2023/01/07 06:18:33;;;;;;;2.70;1.77;;;;;;;9.15;100.00;101237.09;5190066;28;20026;-75
2023/01/07 06:21:04;;;;;;;4.40;1.37;;;;;;;9.14;100.00;101230.19;5184818;28;20026;-73
2023/01/07 06:23:36;;;;;;;4.00;1.60;;;;;;;9.07;100.00;101212.19;5199126;28;20030;-78
2023/01/07 06:26:07;;;;;;;5.50;2.00;;;;;;;9.04;100.00;101214.94;5180906;28;20042;-79
2023/01/07 06:28:38;;;;;;;3.63;1.53;;;;;;;9.06;100.00;101220.06;5208816;28;20026;-78
2023/01/07 06:31:10;;;;;;;4.17;1.30;;;;;;;9.05;100.00;101216.66;5186803;28;20106;-81
2023/01/07 06:33:41;;;;;;;1.57;1.10;;;;;;;9.09;100.00;101212.13;5183294;28;20022;-82
2023/01/07 06:36:13;;;;;;;4.27;1.73;;;;;;;9.11;100.00;101210.25;5173627;28;20059;-80
2023/01/07 06:38:44;;;;;;;4.33;1.60;;;;;;;8.99;100.00;101200.41;5185111;28;20027;-82
2023/01/07 06:41:15;;;;;;;3.97;1.47;;;;;;;9.12;100.00;101213.72;5177867;28;20543;-78
2023/01/07 06:43:47;;;;;;;4.93;1.80;;;;;;;9.11;100.00;101209.44;5176191;28;20034;-79
2023/01/07 06:46:18;;;;;;;3.70;1.47;;;;;;;9.07;100.00;101195.66;5174455;28;20057;-80
2023/01/07 06:48:49;;;;;;;1.50;1.00;;;;;;;9.08;100.00;101205.19;5191571;28;20088;-78
2023/01/07 06:51:21;;;;;;;2.07;1.10;;;;;;;9.11;100.00;101201.59;5182645;28;20042;-73
2023/01/07 06:53:52;;;;;;;1.90;1.30;;;;;;;9.05;100.00;101184.44;5199517;28;20041;-73
2023/01/07 06:56:23;;;;;;;1.80;1.37;;;;;;;9.08;100.00;101189.50;5193431;28;20038;-76
2023/01/07 06:58:54;;;;;;;5.70;1.30;;;;;;;9.10;100.00;101192.91;5200666;28;20030;-81
2023/01/07 07:01:26;;;;;;;2.53;1.53;;;;;;;9.08;100.00;101198.19;5203273;28;20103;-72
2023/01/07 07:03:57;;;;;;;2.67;1.37;;;;;;;9.10;100.00;101197.28;5213365;28;20117;-71
2023/01/07 07:06:28;;;;;;;3.77;1.40;;;;;;;9.11;100.00;101186.75;5206515;28;20033;-79
2023/01/07 07:09:00;;;;;;;1.50;1.17;;;;;;;9.12;100.00;101188.44;5184303;28;20080;-81
2023/01/07 07:11:31;;;;;;;1.97;1.20;;;;;;;9.09;100.00;101172.94;5198475;28;20039;-74
2023/01/07 07:14:03;;;;;;;1.57;0.93;;;;;;;9.08;100.00;101179.06;5183982;28;20038;-78
2023/01/07 07:16:34;;;;;;;5.33;1.10;;;;;;;9.11;100.00;101173.66;5195355;28;20034;-79
2023/01/07 07:19:05;;;;;;;5.90;1.60;;;;;;;8.98;100.00;101162.13;5195060;28;20026;-81
2023/01/07 07:21:36;;;;;;;2.43;1.20;;;;;;;9.11;100.00;101178.91;5185634;28;20035;-82
2023/01/07 07:24:09;;;;;;;2.80;1.30;;;;;;;9.04;100.00;101162.69;5188673;28;20030;-72
2023/01/07 07:26:40;;;;;;;2.17;1.13;;;;;;;9.07;100.00;101156.47;5190934;28;20034;-81
2023/01/07 07:29:12;;;;;;;1.77;1.10;;;;;;;9.06;100.00;101163.47;5188619;28;20414;-82
2023/01/07 07:31:43;;;;;;;3.03;1.53;;;;;;;9.05;100.00;101158.31;5176034;28;20030;-74
2023/01/07 07:34:14;;;;;;;2.47;1.20;;;;;;;9.00;100.00;101152.47;5188792;28;20037;-80
2023/01/07 07:36:45;;;;;;;2.30;1.07;;;;;;;9.05;100.00;101160.91;5216221;28;20033;-82
2023/01/07 07:39:18;;;;;;;2.27;1.23;;;;;;;9.05;100.00;101160.91;5212363;28;20076;-81
2023/01/07 07:41:49;;;;;;;3.23;1.10;;;;;;;9.04;100.00;101159.25;5190857;28;20027;-76
2023/01/07 07:44:20;;;;;;;3.27;1.80;;;;;;;8.99;100.00;101154.22;5174781;28;20023;-82
2023/01/07 07:46:51;;;;;;;3.30;1.93;;;;;;;8.94;100.00;101138.78;5175427;28;20029;-81
2023/01/07 07:49:23;;;;;;;2.00;1.27;;;;;;;9.07;100.00;101152.09;5175353;28;20720;-79
2023/01/07 07:51:54;;;;;;;2.53;1.00;;;;;;;9.09;100.00;101149.41;5196285;28;20026;-80
2023/01/07 07:54:27;;;;;;;2.93;1.53;;;;;;;9.04;100.00;101135.72;5215362;28;20030;-78
2023/01/07 07:56:58;;;;;;;2.90;1.30;;;;;;;9.04;100.00;101146.19;5215729;28;20111;-77
2023/01/07 07:59:29;;;;;;;2.10;1.20;;;;;;;9.02;100.00;101134.94;5206490;28;20691;-71
2023/01/07 08:02:01;;;;;;;2.80;1.43;;;;;;;9.03;100.00;101139.25;5193430;28;20049;-75
2023/01/07 08:04:33;;;;;;;5.40;1.70;;;;;;;9.05;100.00;101142.63;5192485;28;20662;-74
2023/01/07 08:07:05;;;;;;;3.80;1.13;;;;;;;9.02;100.00;101129.72;5179869;28;20034;-74
2023/01/07 08:09:36;;;;;;;3.40;1.20;;;;;;;9.06;100.00;101128.63;5167798;28;20041;-76
2023/01/07 08:12:07;;;;;;;2.53;1.10;;;;;;;9.08;100.00;101127.66;5180550;28;20057;-76
2023/01/07 08:14:39;;;;;;;3.50;1.00;;;;;;;9.09;100.00;101133.72;5192983;28;20527;-77
2023/01/07 08:17:10;;;;;;;1.90;1.10;;;;;;;9.10;100.00;101135.41;5192000;28;20074;-72
2023/01/07 08:19:41;;;;;;;1.77;1.07;;;;;;;9.03;100.00;101121.81;5194124;28;20038;-79
2023/01/07 08:22:12;;;;;;;2.63;1.43;;;;;;;9.08;100.00;101119.81;5187792;28;20046;-80
2023/01/07 08:24:44;;;;;;;2.70;1.60;;;;;;;9.01;100.00;101114.94;5181272;28;20026;-79
2023/01/07 08:27:15;;;;;;;3.07;2.00;;;;;;;9.10;100.00;101122.34;5182392;28;20057;-81
2023/01/07 08:29:46;;;;;;;3.47;1.70;;;;;;;9.11;100.00;101121.41;5190707;28;20030;-78
2023/01/07 08:32:17;;;;;;;4.37;1.97;;;;;;;9.15;100.00;101112.50;5190498;28;20022;-79
2023/01/07 08:34:49;;;;;;;2.33;1.40;;;;;;;9.12;100.00;101106.59;5177782;28;20190;-81
2023/01/07 08:37:20;;;;;;;2.27;1.50;;;;;;;9.15;100.00;101120.34;5186303;28;20517;-81
2023/01/07 08:39:51;;;;;;;2.73;1.30;;;;;;;9.17;100.00;101110.69;5174843;28;20066;-73
2023/01/07 08:42:23;;;;;;;1.57;1.17;;;;;;;9.17;100.00;101105.44;5187771;28;20018;-79
2023/01/07 08:44:54;;;;;;;5.83;1.30;;;;;;;9.24;100.00;101102.50;5192222;28;20041;-77
2023/01/07 08:47:29;;;;;;;2.30;1.07;;;;;;;9.26;100.00;101108.53;5188532;28;20022;-76
2023/01/07 08:50:01;;;;;;;6.67;1.50;;;;;;;9.25;100.00;101106.84;5176545;28;20070;-80
2023/01/07 08:52:33;;;;;;;3.43;1.90;;;;;;;9.25;100.00;101091.16;5193382;28;20027;-82
2023/01/07 08:55:04;;;;;;;2.37;1.50;;;;;;;9.26;100.00;101098.06;5189093;28;20788;-79
2023/01/07 08:57:35;;;;;;;2.90;1.30;;;;;;;9.26;100.00;101098.06;5192510;28;20040;-79
2023/01/07 09:00:07;;;;;;;2.77;1.27;;;;;;;9.28;100.00;101096.22;5195936;28;20026;-76
2023/01/07 09:02:42;;;;;;;2.00;1.10;;;;;;;9.27;100.00;101099.75;5179228;28;20031;-72
2023/01/07 09:05:13;;;;;;;;;;;;;;;9.39;100.00;101103.53;5177310;28;20027;-79
2023/01/07 09:07:44;;;;;;;2.13;1.00;;;;;;;9.29;100.00;101092.69;5190610;28;19959;-80
2023/01/07 09:10:16;;;;;;;2.03;0.97;;;;;;;9.35;100.00;101089.78;5183254;28;20068;-76
2023/01/07 09:12:47;;;;;;;2.33;1.20;;;;;;;9.38;100.00;101091.38;5181170;28;20498;-78
2023/01/07 09:15:18;;;;;;;1.67;1.00;;;;;;;9.37;100.00;101085.31;5189473;28;20085;-76
2023/01/07 09:17:50;;;;;;;2.50;1.37;;;;;;;9.38;100.00;101079.16;5194518;28;20421;-78
2023/01/07 09:20:21;;;;;;;2.27;1.10;;;;;;;9.38;100.00;101076.53;5183150;28;20054;-76
2023/01/07 09:22:53;;;;;;;5.63;1.10;;;;;;;9.44;100.00;101084.06;5182010;28;20039;-79
2023/01/07 09:25:27;;;;;;;1.10;0.93;;;;;;;9.47;100.00;101083.06;5184180;28;20027;-76
2023/01/07 09:27:58;;;;;;;2.97;2.13;;;;;;;9.48;100.00;101081.31;5177998;28;20022;-78
2023/01/07 09:30:29;;;;;;;2.60;0.97;;;;;;;9.50;100.00;101071.59;5182085;28;20085;-76
2023/01/07 09:33:01;;;;;;;3.37;1.37;;;;;;;9.44;100.00;101070.97;5185499;28;20026;-81
2023/01/07 09:35:32;;;;;;;2.60;1.07;;;;;;;9.47;100.00;101069.13;5184352;28;20667;-78
2023/01/07 09:38:04;;;;;;;2.93;1.30;;;;;;;9.55;100.00;101061.75;5192420;28;20026;-79
2023/01/07 09:40:40;;;;;;;1.10;0.90;;;;;;;9.59;100.00;101057.19;5177496;28;20047;-78
2023/01/07 09:43:36;;;;;;;1.87;0.93;;;;;;;9.61;100.00;101053.59;5196034;28;20369;-83
2023/01/07 09:46:08;;;;;;;3.50;1.00;;;;;;;9.66;100.00;101045.50;5184893;28;20061;-83
2023/01/07 09:48:46;;;;;;;4.37;0.97;;;;;;;9.67;100.00;101039.31;5193651;28;20026;-79
2023/01/07 09:51:26;;;;;;;2.83;1.43;;;;;;;9.73;100.00;101038.16;5207132;28;20030;-82
2023/01/07 09:54:00;;;;;;;5.37;1.00;;;;;;;9.79;100.00;101037.84;5191764;28;20022;-81
2023/01/07 09:56:33;;;;;;;1.75;0.98;;;;;;;9.85;100.00;101037.50;5185143;28;20037;-79
2023/01/07 09:59:06;;;;;;;5.10;1.10;;;;;;;9.90;100.00;101032.88;5179552;28;20614;-80
2023/01/07 10:01:54;;;;;;;2.50;1.33;;;;;;;9.93;100.00;101031.88;5182410;28;20635;-79
2023/01/07 10:04:48;;;;;;;1.20;0.80;;;;;;;10.01;100.00;101019.22;5184521;28;20037;-78
2023/01/07 10:07:24;;;;;;;3.17;1.60;;;;;;;10.04;100.00;101016.44;5187069;28;20133;-75
2023/01/07 10:10:23;;;;;;;3.43;1.43;;;;;;;10.07;100.00;101023.25;5190374;28;20014;-77
2023/01/07 10:13:07;;;;;;;2.47;1.00;;;;;;;10.12;100.00;101013.38;5186096;28;20038;-73
2023/01/07 10:15:56;;;;;;;5.50;1.35;;;;;;;10.13;100.00;100991.53;5180777;28;20716;-79
2023/01/07 10:18:37;;;;;;;3.33;2.30;;;;;;;10.16;100.00;100978.25;5183040;28;20034;-82
2023/01/07 10:21:15;;;;;;;3.87;2.00;;;;;;;10.13;100.00;100983.66;5185536;28;20030;-72
2023/01/07 10:23:56;;;;;;;1.10;0.80;;;;;;;10.16;100.00;100962.56;5186918;28;20533;-74
2023/01/07 10:26:36;;;;;;;4.97;3.17;;;;;;;10.27;100.00;100974.19;5195504;28;20026;-73
2023/01/07 10:30:02;;;;;;;2.50;1.20;;;;;;;10.30;100.00;100971.41;5203999;28;20028;-77
2023/01/07 10:32:35;;;;;;;2.28;0.93;;;;;;;10.23;100.00;100933.41;5173480;28;20069;-73
2023/01/07 10:35:16;;;;;;;2.00;0.97;;;;;;;10.36;100.00;100957.97;5200352;28;20031;-81
2023/01/07 10:37:47;;;;;;;2.17;1.20;;;;;;;10.38;100.00;100950.03;5200233;28;20090;-76
2023/01/07 10:40:31;;;;;;;4.53;1.67;;;;;;;10.41;100.00;100942.00;5190876;28;20110;-79
2023/01/07 10:43:11;;;;;;;1.40;0.88;;;;;;;10.46;100.00;100936.47;5185406;28;20023;-79
2023/01/07 10:46:23;;;;;;;2.23;1.30;;;;;;;10.46;100.00;100936.47;5193639;28;20033;-78
2023/01/07 10:49:09;;;;;;;2.17;1.00;;;;;;;10.49;100.00;100938.97;5179905;28;20030;-75
2023/01/07 10:52:03;;;;;;;3.90;0.97;;;;;;;10.56;100.00;100921.13;5185603;28;20101;-80
2023/01/07 10:54:43;;;;;;;1.57;0.90;;;;;;;10.59;100.00;100920.94;5185178;28;20041;-78
2023/01/07 10:57:18;;;;;;;1.80;0.67;;;;;;;10.50;100.00;100894.38;5181985;28;20088;-76
2023/01/07 10:59:53;;;;;;;1.77;0.80;;;;;;;10.57;100.00;100901.84;5183194;28;20031;-79
2023/01/07 11:02:27;;;;;;;2.33;0.80;;;;;;;10.59;100.00;100900.84;5185853;28;20058;-76
2023/01/07 11:04:59;;;;;;;2.70;1.25;;;;;;;10.64;100.00;100883.06;5184720;28;20557;-78
2023/01/07 11:07:42;;;;;;;3.13;1.37;;;;;;;10.65;100.00;100900.47;5177950;28;20023;-79
2023/01/07 11:10:18;;;;;;;0.87;0.70;;;;;;;10.70;100.00;100901.97;5185913;28;20037;-73
2023/01/07 11:12:53;;;;;;;1.93;0.80;;;;;;;10.79;100.00;100888.31;5190061;28;20542;-73
2023/01/07 11:15:35;;;;;;;1.63;0.90;;;;;;;10.72;100.00;100884.38;5192933;28;20030;-76
2023/01/07 11:18:20;;;;;;;3.00;0.90;;;;;;;10.73;100.00;100880.84;5189709;28;20030;-75
2023/01/07 11:20:53;;;;;;;6.27;3.90;;;;;;;10.80;100.00;100887.41;5191359;28;20698;-76
2023/01/07 11:23:40;;;;;;;4.17;3.03;;;;;;;10.81;100.00;100881.22;5191102;28;20030;-77
2023/01/07 11:26:25;;;;;;;3.40;1.70;;;;;;;10.79;100.00;100869.97;5191239;28;20026;-75
2023/01/07 11:29:13;;;;;;;2.88;1.35;;;;;;;10.76;100.00;100865.78;5184906;28;20462;-74
2023/01/07 11:31:50;;;;;;;2.10;1.40;;;;;;;10.81;100.00;100857.63;5174307;28;20042;-74
2023/01/07 11:34:24;;;;;;;1.17;0.83;;;;;;;10.86;100.00;100850.34;5186008;28;20038;-74
2023/01/07 11:36:55;;;;;;;1.92;1.05;;;;;;;10.86;100.00;100845.09;5181697;28;20456;-73
2023/01/07 11:39:30;;;;;;;1.53;1.00;;;;;;;10.76;100.00;100823.88;5178886;28;20026;-74
2023/01/07 11:42:37;;;;;;;;;;;;;;;10.95;100.00;100838.44;5182536;28;20113;-74
2023/01/07 11:45:11;;;;;;;1.77;1.17;;;;;;;10.94;100.00;100823.66;5181195;28;20556;-75
2023/01/07 11:48:17;;;;;;;3.23;1.00;;;;;;;10.89;100.00;100823.94;5181438;28;20378;-72
2023/01/07 11:50:51;;;;;;;2.37;1.30;;;;;;;10.85;100.00;100819.00;5179258;28;20053;-72
2023/01/07 11:53:36;;;;;;;2.33;1.40;;;;;;;10.89;100.00;100810.84;5184832;28;20160;-72
2023/01/07 11:56:13;;;;;;;1.52;1.02;;;;;;;10.87;100.00;100809.25;5183411;28;21677;-72
2023/01/07 11:59:12;;;;;;;1.13;0.87;;;;;;;10.94;100.00;100804.47;5182044;28;20045;-71
2023/01/07 12:01:58;;;;;;;1.17;1.00;;;;;;;10.86;100.00;100787.44;5184508;28;20042;-71
2023/01/07 12:04:36;;;;;;;1.33;1.00;;;;;;;10.84;100.00;100778.03;5183209;28;20046;-71
2023/01/07 12:07:15;;;;;;;1.20;0.97;;;;;;;10.83;100.00;100782.41;5181063;28;20031;-72